createdAt,value
2017-04-10T00:00:04.173Z,70.70
2017-04-10T00:01:03.815Z,70.90
2017-04-10T00:02:03.379Z,71.00
2017-04-10T00:03:03.019Z,70.80
2017-04-10T00:04:03.149Z,70.90
2017-04-10T00:05:03.471Z,71.00
2017-04-10T00:06:03.679Z,71.10
2017-04-10T00:07:04.056Z,71.10
2017-04-10T00:08:03.622Z,71.30
2017-04-10T00:09:04.446Z,71.20
2017-04-10T00:10:04.180Z,71.40
2017-04-10T00:11:03.755Z,71.60
2017-04-10T00:12:03.315Z,71.80
2017-04-10T00:13:03.615Z,71.70
2017-04-10T00:14:03.966Z,72.00
2017-04-10T00:15:03.955Z,72.90
2017-04-10T00:16:03.619Z,72.00
2017-04-10T00:17:03.252Z,72.00
2017-04-10T00:18:02.820Z,72.00
2017-04-10T00:19:03.422Z,71.70
2017-04-10T00:20:03.052Z,71.70
2017-04-10T00:21:03.392Z,71.70
2017-04-10T00:22:02.966Z,72.00
2017-04-10T00:23:03.355Z,71.80
2017-04-10T00:24:02.923Z,72.00
2017-04-10T00:25:03.167Z,72.00
2017-04-10T00:26:02.732Z,71.90
2017-04-10T00:27:02.437Z,71.80
2017-04-10T00:28:01.996Z,71.90
2017-04-10T00:29:02.311Z,71.60
2017-04-10T00:30:02.977Z,71.80
2017-04-10T00:31:03.075Z,72.00
2017-04-10T00:32:02.697Z,72.10
2017-04-10T00:33:02.264Z,72.20
2017-04-10T00:34:01.886Z,72.20
2017-04-10T00:35:01.422Z,72.40
2017-04-10T00:36:01.783Z,72.40
2017-04-10T00:37:01.359Z,72.40
2017-04-10T00:38:00.987Z,71.90
2017-04-10T00:39:00.527Z,72.70
2017-04-10T00:40:01.456Z,72.60
2017-04-10T00:41:01.895Z,73.00
2017-04-10T00:42:01.523Z,72.90
2017-04-10T00:43:01.857Z,73.00
2017-04-10T00:44:01.416Z,73.30
2017-04-10T00:45:00.988Z,73.30
2017-04-10T00:46:01.319Z,73.20
2017-04-10T00:47:00.861Z,73.00
2017-04-10T00:48:00.498Z,73.00
2017-04-10T00:49:00.791Z,72.90
2017-04-10T00:50:01.228Z,73.10
2017-04-10T00:51:01.620Z,73.00
2017-04-10T00:53:01.054Z,73.30
2017-04-10T00:54:01.435Z,73.30
2017-04-10T00:55:01.396Z,73.50
2017-04-10T00:56:01.266Z,73.40
2017-04-10T00:57:00.823Z,73.50
2017-04-10T00:58:00.359Z,73.60
2017-04-10T00:59:00.654Z,73.50
2017-04-10T01:00:00.270Z,73.60
2017-04-10T01:01:00.619Z,73.70
2017-04-10T01:02:00.193Z,73.90
2017-04-10T01:03:00.532Z,73.70
2017-04-10T01:04:00.114Z,73.80
2017-04-10T01:04:59.680Z,74.10
2017-04-10T01:05:59.288Z,74.00
2017-04-10T01:06:59.719Z,74.20
2017-04-10T01:08:00.481Z,74.10
2017-04-10T01:09:00.037Z,74.20
2017-04-10T01:10:00.697Z,74.10
2017-04-10T01:11:00.296Z,73.90
2017-04-10T01:11:59.905Z,73.90
2017-04-10T01:12:59.479Z,73.80
2017-04-10T01:13:59.469Z,73.70
2017-04-10T01:14:59.827Z,73.60
2017-04-10T01:15:59.400Z,73.70
2017-04-10T01:16:58.976Z,74.00
2017-04-10T01:17:59.296Z,74.00
2017-04-10T01:19:00.015Z,73.90
2017-04-10T01:20:00.394Z,73.90
2017-04-10T01:20:59.997Z,73.90
2017-04-10T01:21:59.600Z,74.00
2017-04-10T01:22:59.175Z,73.70
2017-04-10T01:23:59.004Z,74.10
2017-04-10T01:24:58.770Z,74.30
2017-04-10T01:25:58.399Z,74.90
2017-04-10T01:26:58.004Z,75.20
2017-04-10T01:27:57.561Z,74.90
2017-04-10T01:28:57.106Z,74.60
2017-04-10T01:29:57.506Z,74.50
2017-04-10T01:31:57.310Z,74.40
2017-04-10T01:32:57.634Z,74.40
2017-04-10T01:33:57.876Z,74.50
2017-04-10T01:34:58.185Z,74.00
2017-04-10T01:35:58.544Z,74.50
2017-04-10T01:36:58.112Z,74.70
2017-04-10T01:37:57.707Z,75.00
2017-04-10T01:38:57.264Z,74.80
2017-04-10T01:39:56.884Z,74.50
2017-04-10T01:40:57.224Z,73.90
2017-04-10T01:41:57.602Z,73.50
2017-04-10T01:42:57.223Z,74.30
2017-04-10T01:43:57.539Z,74.20
2017-04-10T01:44:57.850Z,74.20
2017-04-10T01:45:58.212Z,74.40
2017-04-10T01:46:57.799Z,73.70
2017-04-10T01:47:57.439Z,73.40
2017-04-10T01:49:56.804Z,72.80
2017-04-10T01:50:57.936Z,72.80
2017-04-10T01:51:57.896Z,73.20
2017-04-10T01:52:58.183Z,73.20
2017-04-10T01:53:58.111Z,73.50
2017-04-10T01:54:58.474Z,73.80
2017-04-10T01:55:58.016Z,73.70
2017-04-10T01:57:57.616Z,73.40
2017-04-10T01:58:57.187Z,73.50
2017-04-10T01:59:56.825Z,74.20
2017-04-10T02:01:56.175Z,73.20
2017-04-10T02:02:55.783Z,73.10
2017-04-10T02:03:55.324Z,73.30
2017-04-10T02:04:55.636Z,73.20
2017-04-10T02:05:56.016Z,73.10
2017-04-10T02:06:56.170Z,73.00
2017-04-10T02:07:56.464Z,73.60
2017-04-10T02:08:56.003Z,74.00
2017-04-10T02:09:55.603Z,73.70
2017-04-10T02:10:55.559Z,73.50
2017-04-10T02:11:55.137Z,73.40
2017-04-10T02:12:55.265Z,73.80
2017-04-10T02:13:54.824Z,72.90
2017-04-10T02:14:54.375Z,73.50
2017-04-10T02:16:53.838Z,73.60
2017-04-10T02:17:53.379Z,74.20
2017-04-10T02:18:53.723Z,74.90
2017-04-10T02:19:53.339Z,74.30
2017-04-10T02:20:52.928Z,74.70
2017-04-10T02:21:52.729Z,74.20
2017-04-10T02:22:52.656Z,75.00
2017-04-10T02:23:52.928Z,74.30
2017-04-10T02:24:52.859Z,74.40
2017-04-10T02:25:52.430Z,74.60
2017-04-10T02:26:52.035Z,75.20
2017-04-10T02:27:51.687Z,74.40
2017-04-10T02:28:51.271Z,74.40
2017-04-10T02:29:50.856Z,74.20
2017-04-10T02:30:50.455Z,74.40
2017-04-10T02:31:50.027Z,74.30
2017-04-10T02:32:49.979Z,74.30
2017-04-10T02:33:49.912Z,74.40
2017-04-10T02:34:50.234Z,74.30
2017-04-10T02:35:49.054Z,74.20
2017-04-10T02:36:48.605Z,75.00
2017-04-10T02:37:48.903Z,74.60
2017-04-10T02:38:49.676Z,74.60
2017-04-10T02:39:49.378Z,74.60
2017-04-10T02:40:48.920Z,75.20
2017-04-10T02:41:48.474Z,74.80
2017-04-10T02:42:48.494Z,74.90
2017-04-10T02:43:48.151Z,75.50
2017-04-10T02:44:48.472Z,75.00
2017-04-10T02:45:48.024Z,75.40
2017-04-10T02:46:47.825Z,75.20
2017-04-10T02:47:47.380Z,74.90
2017-04-10T02:48:47.067Z,75.00
2017-04-10T02:49:46.617Z,74.60
2017-04-10T02:50:46.161Z,74.50
2017-04-10T02:51:45.731Z,74.60
2017-04-10T02:52:46.046Z,74.90
2017-04-10T02:53:45.639Z,75.20
2017-04-10T02:54:45.391Z,74.90
2017-04-10T02:55:44.976Z,75.20
2017-04-10T02:56:44.949Z,75.50
2017-04-10T02:57:44.963Z,75.00
2017-04-10T02:58:44.532Z,75.00
2017-04-10T02:59:44.435Z,75.20
2017-04-10T03:00:44.058Z,75.60
2017-04-10T03:01:44.483Z,74.80
2017-04-10T03:02:44.771Z,74.70
2017-04-10T03:03:44.340Z,74.60
2017-04-10T03:04:45.307Z,75.30
2017-04-10T03:05:44.928Z,76.20
2017-04-10T03:06:45.283Z,76.00
2017-04-10T03:07:45.660Z,76.60
2017-04-10T03:08:46.011Z,76.60
2017-04-10T03:09:45.632Z,76.20
2017-04-10T03:10:45.331Z,76.10
2017-04-10T03:11:44.916Z,75.40
2017-04-10T03:12:44.472Z,75.00
2017-04-10T03:13:45.178Z,75.00
2017-04-10T03:15:44.573Z,75.40
2017-04-10T03:16:44.227Z,75.30
2017-04-10T03:17:43.950Z,75.60
2017-04-10T03:18:43.618Z,75.00
2017-04-10T03:19:43.158Z,75.10
2017-04-10T03:20:42.923Z,75.70
2017-04-10T03:21:43.211Z,75.80
2017-04-10T03:22:43.700Z,75.10
2017-04-10T03:23:43.406Z,75.00
2017-04-10T03:24:42.979Z,75.50
2017-04-10T03:25:42.695Z,76.00
2017-04-10T03:27:42.806Z,76.00
2017-04-10T03:28:43.101Z,76.00
2017-04-10T03:29:42.632Z,75.90
2017-04-10T03:31:42.224Z,76.40
2017-04-10T03:32:41.785Z,76.10
2017-04-10T03:33:41.348Z,76.20
2017-04-10T03:34:42.008Z,76.10
2017-04-10T03:35:41.612Z,76.30
2017-04-10T03:36:41.331Z,76.00
2017-04-10T03:37:40.921Z,75.90
2017-04-10T03:38:40.575Z,75.90
2017-04-10T03:39:40.116Z,75.90
2017-04-10T03:40:39.720Z,76.40
2017-04-10T03:41:39.332Z,76.00
2017-04-10T03:42:39.235Z,75.90
2017-04-10T03:43:39.499Z,75.70
2017-04-10T03:44:39.043Z,76.10
2017-04-10T03:45:38.641Z,75.90
2017-04-10T03:46:38.181Z,76.10
2017-04-10T03:47:38.498Z,76.30
2017-04-10T03:48:39.590Z,76.70
2017-04-10T03:49:39.131Z,76.60
2017-04-10T03:50:38.699Z,75.80
2017-04-10T03:51:39.010Z,75.50
2017-04-10T03:53:39.584Z,76.60
2017-04-10T03:54:39.136Z,76.40
2017-04-10T03:56:38.488Z,76.40
2017-04-10T03:57:38.590Z,76.40
2017-04-10T03:58:38.145Z,76.80
2017-04-10T03:59:38.427Z,76.80
2017-04-10T04:00:38.004Z,76.10
2017-04-10T04:01:37.603Z,76.80
2017-04-10T04:02:37.227Z,76.70
2017-04-10T04:03:36.796Z,76.60
2017-04-10T04:04:36.500Z,76.80
2017-04-10T04:05:36.067Z,76.80
2017-04-10T04:06:36.390Z,76.20
2017-04-10T04:07:36.051Z,76.20
2017-04-10T04:08:35.939Z,76.30
2017-04-10T04:09:35.884Z,76.50
2017-04-10T04:10:35.527Z,76.00
2017-04-10T04:11:35.058Z,77.00
2017-04-10T04:12:34.611Z,75.40
2017-04-10T04:13:34.168Z,75.90
2017-04-10T04:14:34.460Z,76.30
2017-04-10T04:15:34.468Z,77.30
2017-04-10T04:16:34.040Z,76.70
2017-04-10T04:17:33.597Z,76.90
2017-04-10T04:18:33.923Z,76.50
2017-04-10T04:19:33.739Z,76.50
2017-04-10T04:20:33.510Z,76.50
2017-04-10T04:21:33.095Z,76.70
2017-04-10T04:22:33.423Z,77.00
2017-04-10T04:23:33.927Z,77.10
2017-04-10T04:24:34.247Z,76.50
2017-04-10T04:25:34.562Z,77.10
2017-04-10T04:26:34.950Z,76.80
2017-04-10T04:27:34.663Z,77.40
2017-04-10T04:28:34.238Z,77.20
2017-04-10T04:29:34.743Z,77.50
2017-04-10T04:30:34.296Z,77.70
2017-04-10T04:31:34.591Z,77.80
2017-04-10T04:33:33.960Z,77.70
2017-04-10T04:34:33.704Z,77.60
2017-04-10T04:35:34.053Z,77.30
2017-04-10T04:36:35.047Z,76.80
2017-04-10T04:37:35.846Z,76.30
2017-04-10T04:38:35.665Z,76.50
2017-04-10T04:39:35.220Z,76.10
2017-04-10T04:40:34.772Z,76.10
2017-04-10T04:41:35.043Z,75.80
2017-04-10T04:42:34.625Z,75.90
2017-04-10T04:43:34.375Z,75.40
2017-04-10T04:44:33.956Z,75.10
2017-04-10T04:45:33.554Z,75.00
2017-04-10T04:46:33.083Z,74.90
2017-04-10T04:47:33.416Z,74.60
2017-04-10T04:48:33.891Z,75.00
2017-04-10T04:49:33.459Z,74.90
2017-04-10T04:50:33.095Z,74.90
2017-04-10T04:51:32.775Z,73.40
2017-04-10T04:52:32.456Z,74.30
2017-04-10T04:53:32.024Z,73.90
2017-04-10T04:54:31.617Z,73.70
2017-04-10T04:55:31.944Z,73.60
2017-04-10T04:56:31.560Z,73.60
2017-04-10T04:57:31.775Z,74.00
2017-04-10T04:58:31.349Z,73.10
2017-04-10T04:59:30.975Z,72.80
2017-04-10T05:00:30.594Z,72.50
2017-04-10T05:01:30.127Z,72.40
2017-04-10T05:02:29.704Z,72.10
2017-04-10T05:03:30.137Z,71.80
2017-04-10T05:04:30.471Z,71.20
2017-04-10T05:05:30.086Z,71.70
2017-04-10T05:06:29.676Z,70.30
2017-04-10T05:07:29.402Z,70.20
2017-04-10T05:08:29.015Z,70.00
2017-04-10T05:09:28.687Z,69.60
2017-04-10T05:10:28.291Z,69.50
2017-04-10T05:11:28.578Z,69.40
2017-04-10T05:12:28.175Z,69.40
2017-04-10T05:13:27.795Z,69.60
2017-04-10T05:14:27.363Z,69.60
2017-04-10T05:15:26.915Z,69.50
2017-04-10T05:16:26.516Z,69.40
2017-04-10T05:17:26.107Z,69.20
2017-04-10T05:18:25.749Z,69.10
2017-04-10T05:19:26.071Z,69.00
2017-04-10T05:20:25.629Z,69.10
2017-04-10T05:21:25.944Z,69.00
2017-04-10T05:22:25.532Z,68.80
2017-04-10T05:23:25.290Z,68.40
2017-04-10T05:24:24.951Z,67.10
2017-04-10T05:25:25.303Z,66.50
2017-04-10T05:26:25.055Z,66.70
2017-04-10T05:27:24.616Z,66.60
2017-04-10T05:28:24.463Z,66.50
2017-04-10T05:30:25.567Z,66.80
2017-04-10T05:31:25.138Z,66.90
2017-04-10T05:32:24.820Z,66.90
2017-04-10T05:33:25.151Z,66.30
2017-04-10T05:34:24.804Z,66.20
2017-04-10T05:35:24.687Z,66.20
2017-04-10T05:36:24.249Z,65.70
2017-04-10T05:37:23.803Z,64.80
2017-04-10T05:38:23.792Z,65.40
2017-04-10T05:39:23.696Z,65.00
2017-04-10T05:40:23.719Z,64.60
2017-04-10T05:41:23.296Z,64.70
2017-04-10T05:42:22.851Z,64.50
2017-04-10T05:43:23.611Z,64.50
2017-04-10T05:44:23.189Z,64.60
2017-04-10T05:45:22.802Z,64.40
2017-04-10T05:46:22.414Z,64.20
2017-04-10T05:47:21.943Z,64.00
2017-04-10T05:48:21.531Z,64.10
2017-04-10T05:49:21.096Z,64.00
2017-04-10T05:50:20.665Z,63.90
2017-04-10T05:51:20.192Z,63.80
2017-04-10T05:52:19.767Z,63.50
2017-04-10T05:53:19.522Z,63.70
2017-04-10T05:54:19.059Z,63.40
2017-04-10T05:55:18.655Z,63.10
2017-04-10T05:56:18.209Z,62.80
2017-04-10T05:57:17.870Z,62.50
2017-04-10T05:58:17.612Z,62.90
2017-04-10T05:59:17.915Z,62.20
2017-04-10T06:00:17.531Z,62.20
2017-04-10T06:01:17.092Z,62.60
2017-04-10T06:02:16.666Z,62.40
2017-04-10T06:03:16.284Z,62.30
2017-04-10T06:04:15.864Z,62.40
2017-04-10T06:05:15.547Z,62.30
2017-04-10T06:06:15.183Z,62.10
2017-04-10T06:07:14.748Z,61.60
2017-04-10T06:08:14.444Z,62.00
2017-04-10T06:09:14.791Z,62.40
2017-04-10T06:10:14.400Z,62.20
2017-04-10T06:11:14.108Z,62.30
2017-04-10T06:12:13.771Z,61.50
2017-04-10T06:13:13.558Z,62.60
2017-04-10T06:14:13.860Z,61.40
2017-04-10T06:15:14.243Z,60.40
2017-04-10T06:16:14.739Z,60.30
2017-04-10T06:17:14.361Z,60.20
2017-04-10T06:18:13.932Z,60.20
2017-04-10T06:19:13.504Z,60.00
2017-04-10T06:20:13.883Z,59.40
2017-04-10T06:21:13.527Z,59.80
2017-04-10T06:22:13.127Z,59.80
2017-04-10T06:23:12.675Z,59.30
2017-04-10T06:24:12.206Z,59.00
2017-04-10T06:25:11.769Z,59.60
2017-04-10T06:26:11.331Z,59.00
2017-04-10T06:27:10.879Z,59.20
2017-04-10T06:28:10.604Z,59.50
2017-04-10T06:29:10.286Z,59.20
2017-04-10T06:30:09.945Z,58.90
2017-04-10T06:31:09.507Z,58.70
2017-04-10T06:32:09.160Z,58.60
2017-04-10T06:33:08.728Z,58.70
2017-04-10T06:34:08.435Z,58.70
2017-04-10T06:35:07.987Z,58.10
2017-04-10T06:36:08.392Z,58.70
2017-04-10T06:37:07.988Z,58.20
2017-04-10T06:38:07.547Z,57.60
2017-04-10T06:39:07.164Z,57.10
2017-04-10T06:40:06.781Z,56.90
2017-04-10T06:41:06.380Z,57.10
2017-04-10T06:43:05.910Z,57.60
2017-04-10T06:44:05.503Z,57.50
2017-04-10T06:45:05.068Z,56.10
2017-04-10T06:46:04.627Z,55.90
2017-04-10T06:47:04.171Z,56.50
2017-04-10T06:48:03.715Z,56.80
2017-04-10T06:49:03.267Z,55.20
2017-04-10T06:50:03.084Z,56.00
2017-04-10T06:51:03.463Z,56.10
2017-04-10T06:52:03.044Z,57.20
2017-04-10T06:53:04.024Z,55.30
2017-04-10T06:55:04.687Z,55.30
2017-04-10T06:56:04.367Z,54.10
2017-04-10T06:57:03.943Z,54.40
2017-04-10T06:58:04.267Z,53.30
2017-04-10T06:59:04.048Z,53.40
2017-04-10T07:00:03.667Z,54.60
2017-04-10T07:01:04.364Z,53.70
2017-04-10T07:02:04.941Z,54.70
2017-04-10T07:03:07.772Z,54.00
2017-04-10T07:05:07.739Z,54.60
2017-04-10T07:06:07.339Z,53.10
2017-04-10T07:07:06.955Z,54.20
2017-04-10T07:08:06.462Z,52.70
2017-04-10T07:09:06.191Z,52.40
2017-04-10T07:10:05.787Z,52.60
2017-04-10T07:11:05.695Z,51.40
2017-04-10T07:12:05.219Z,51.90
2017-04-10T07:13:04.775Z,50.20
2017-04-10T07:14:04.348Z,50.10
2017-04-10T07:15:04.284Z,50.00
2017-04-10T07:16:03.860Z,50.30
2017-04-10T07:17:04.564Z,50.40
2017-04-10T07:18:04.151Z,49.20
2017-04-10T07:19:03.712Z,49.20
2017-04-10T07:20:04.165Z,50.70
2017-04-10T07:21:03.747Z,49.20
2017-04-10T07:22:03.301Z,49.00
2017-04-10T07:23:02.946Z,49.10
2017-04-10T07:24:02.625Z,49.50
2017-04-10T07:25:02.909Z,48.90
2017-04-10T07:26:02.539Z,48.30
2017-04-10T07:27:02.099Z,48.50
2017-04-10T07:28:01.640Z,48.80
2017-04-10T07:29:01.229Z,48.90
2017-04-10T07:30:01.576Z,49.40
2017-04-10T07:31:01.493Z,48.50
2017-04-10T07:32:01.116Z,48.10
2017-04-10T07:33:00.660Z,48.10
2017-04-10T07:34:00.282Z,48.30
2017-04-10T07:34:59.822Z,48.00
2017-04-10T07:36:00.155Z,47.80
2017-04-10T07:37:00.603Z,48.00
2017-04-10T07:38:00.147Z,48.00
2017-04-10T07:39:00.681Z,47.60
2017-04-10T07:40:00.311Z,48.20
2017-04-10T07:40:59.871Z,48.20
2017-04-10T07:41:59.831Z,48.70
2017-04-10T07:42:59.402Z,48.60
2017-04-10T07:43:59.099Z,47.70
2017-04-10T07:44:58.647Z,47.50
2017-04-10T07:45:58.316Z,47.80
2017-04-10T07:46:57.906Z,47.70
2017-04-10T07:47:57.444Z,47.60
2017-04-10T07:48:56.986Z,48.30
2017-04-10T07:49:56.531Z,47.50
2017-04-10T07:50:56.190Z,47.10
2017-04-10T07:51:55.821Z,47.50
2017-04-10T07:52:55.448Z,46.90
2017-04-10T07:53:54.995Z,47.60
2017-04-10T07:54:54.550Z,47.90
2017-04-10T07:55:54.212Z,47.20
2017-04-10T07:56:53.779Z,46.60
2017-04-10T07:57:53.368Z,47.20
2017-04-10T07:58:53.336Z,47.30
2017-04-10T07:59:53.592Z,47.90
2017-04-10T08:00:53.293Z,47.20
2017-04-10T08:01:52.886Z,49.00
2017-04-10T08:02:52.798Z,48.20
2017-04-10T08:03:52.349Z,47.00
2017-04-10T08:04:52.042Z,47.80
2017-04-10T08:05:51.598Z,47.20
2017-04-10T08:06:51.240Z,48.50
2017-04-10T08:07:50.782Z,46.60
2017-04-10T08:08:50.360Z,46.90
2017-04-10T08:09:49.963Z,47.40
2017-04-10T08:10:49.623Z,47.40
2017-04-10T08:11:49.188Z,47.40
2017-04-10T08:12:49.515Z,46.10
2017-04-10T08:13:49.090Z,45.40
2017-04-10T08:14:48.621Z,45.70
2017-04-10T08:15:48.214Z,46.60
2017-04-10T08:16:48.499Z,45.20
2017-04-10T08:17:48.071Z,46.60
2017-04-10T08:18:47.639Z,47.40
2017-04-10T08:19:47.215Z,46.20
2017-04-10T08:20:47.145Z,48.40
2017-04-10T08:21:46.667Z,46.70
2017-04-10T08:22:46.240Z,45.00
2017-04-10T08:23:45.796Z,47.10
2017-04-10T08:24:45.461Z,45.40
2017-04-10T08:25:44.993Z,45.90
2017-04-10T08:26:44.522Z,47.00
2017-04-10T08:27:44.055Z,44.20
2017-04-10T08:28:43.748Z,43.30
2017-04-10T08:29:43.268Z,44.30
2017-04-10T08:30:42.811Z,44.10
2017-04-10T08:31:42.364Z,43.50
2017-04-10T08:32:41.936Z,43.40
2017-04-10T08:33:41.968Z,44.40
2017-04-10T08:34:41.541Z,42.30
2017-04-10T08:35:41.063Z,41.40
2017-04-10T08:36:40.590Z,42.90
2017-04-10T08:37:40.209Z,43.60
2017-04-10T08:38:40.418Z,44.50
2017-04-10T08:39:40.786Z,40.10
2017-04-10T08:40:40.373Z,38.50
2017-04-10T08:41:39.945Z,39.00
2017-04-10T08:42:40.204Z,38.90
2017-04-10T08:43:39.751Z,39.30
2017-04-10T08:44:40.180Z,39.80
2017-04-10T08:45:40.503Z,40.30
2017-04-10T08:46:40.115Z,40.20
2017-04-10T08:47:41.127Z,41.20
2017-04-10T08:48:41.609Z,41.60
2017-04-10T08:49:41.305Z,40.70
2017-04-10T08:50:40.964Z,39.70
2017-04-10T08:51:40.548Z,40.30
2017-04-10T08:52:40.095Z,39.50
2017-04-10T08:53:39.599Z,40.30
2017-04-10T08:54:39.148Z,40.70
2017-04-10T08:55:38.961Z,39.30
2017-04-10T08:56:38.535Z,40.40
2017-04-10T08:57:38.099Z,41.30
2017-04-10T08:58:37.699Z,39.90
2017-04-10T08:59:37.243Z,39.50
2017-04-10T09:00:36.808Z,40.30
2017-04-10T09:01:36.474Z,40.30
2017-04-10T09:02:36.033Z,38.40
2017-04-10T09:03:35.623Z,38.80
2017-04-10T09:04:35.190Z,38.70
2017-04-10T09:05:34.708Z,38.70
2017-04-10T09:06:34.714Z,38.90
2017-04-10T09:07:34.744Z,38.10
2017-04-10T09:08:34.309Z,40.20
2017-04-10T09:09:33.844Z,39.20
2017-04-10T09:10:33.886Z,38.20
2017-04-10T09:11:33.484Z,38.40
2017-04-10T09:12:33.017Z,37.80
2017-04-10T09:13:32.560Z,38.30
2017-04-10T09:14:32.112Z,38.50
2017-04-10T09:15:31.648Z,37.80
2017-04-10T09:16:31.168Z,38.90
2017-04-10T09:17:30.704Z,39.70
2017-04-10T09:18:30.250Z,38.70
2017-04-10T09:19:29.813Z,38.40
2017-04-10T09:20:29.439Z,39.00
2017-04-10T09:21:28.966Z,36.70
2017-04-10T09:22:28.519Z,38.00
2017-04-10T09:23:28.073Z,40.10
2017-04-10T09:24:28.372Z,42.10
2017-04-10T09:25:27.919Z,38.30
2017-04-10T09:26:27.439Z,37.80
2017-04-10T09:27:27.341Z,37.40
2017-04-10T09:28:26.970Z,36.90
2017-04-10T09:29:26.544Z,35.40
2017-04-10T09:30:26.097Z,35.70
2017-04-10T09:31:25.641Z,34.90
2017-04-10T09:32:26.020Z,34.80
2017-04-10T09:33:25.615Z,34.70
2017-04-10T09:34:25.248Z,33.90
2017-04-10T09:35:25.156Z,33.90
2017-04-10T09:36:24.754Z,35.50
2017-04-10T09:37:24.312Z,33.80
2017-04-10T09:38:23.858Z,33.90
2017-04-10T09:39:23.402Z,33.00
2017-04-10T09:40:23.345Z,32.40
2017-04-10T09:41:23.272Z,32.20
2017-04-10T09:42:22.809Z,33.40
2017-04-10T09:43:22.456Z,35.30
2017-04-10T09:44:22.046Z,35.30
2017-04-10T09:45:21.652Z,33.20
2017-04-10T09:46:21.236Z,32.70
2017-04-10T09:47:20.900Z,32.50
2017-04-10T09:48:20.464Z,32.20
2017-04-10T09:49:20.787Z,32.60
2017-04-10T09:50:21.143Z,33.60
2017-04-10T09:51:20.707Z,32.60
2017-04-10T09:52:21.428Z,33.10
2017-04-10T09:53:21.903Z,33.60
2017-04-10T09:54:21.473Z,33.00
2017-04-10T09:55:21.033Z,32.50
2017-04-10T09:56:21.412Z,31.80
2017-04-10T09:57:21.108Z,31.70
2017-04-10T09:58:20.691Z,31.60
2017-04-10T09:59:20.284Z,31.30
2017-04-10T10:00:19.851Z,32.70
2017-04-10T10:01:19.473Z,32.10
2017-04-10T10:02:19.029Z,31.80
2017-04-10T10:03:20.140Z,32.10
2017-04-10T10:04:19.707Z,31.50
2017-04-10T10:05:19.752Z,31.70
2017-04-10T10:07:20.021Z,31.60
2017-04-10T10:08:19.556Z,31.10
2017-04-10T10:09:19.145Z,32.20
2017-04-10T10:10:19.129Z,32.80
2017-04-10T10:11:18.831Z,31.60
2017-04-10T10:12:18.771Z,31.60
2017-04-10T10:13:18.340Z,31.90
2017-04-10T10:14:18.013Z,30.50
2017-04-10T10:15:17.603Z,30.60
2017-04-10T10:16:17.512Z,30.00
2017-04-10T10:17:17.133Z,29.70
2017-04-10T10:18:16.683Z,29.80
2017-04-10T10:19:16.223Z,29.40
2017-04-10T10:20:15.868Z,31.80
2017-04-10T10:21:15.504Z,31.00
2017-04-10T10:22:15.114Z,32.30
2017-04-10T10:23:14.679Z,30.00
2017-04-10T10:24:14.240Z,29.40
2017-04-10T10:25:13.785Z,29.20
2017-04-10T10:26:13.400Z,28.80
2017-04-10T10:27:12.960Z,28.10
2017-04-10T10:28:12.548Z,27.70
2017-04-10T10:29:12.141Z,27.50
2017-04-10T10:30:11.902Z,27.10
2017-04-10T10:31:11.477Z,27.50
2017-04-10T10:32:11.392Z,27.20
2017-04-10T10:33:11.087Z,27.30
2017-04-10T10:34:10.631Z,27.70
2017-04-10T10:35:10.211Z,27.80
2017-04-10T10:36:09.872Z,27.70
2017-04-10T10:37:09.735Z,27.50
2017-04-10T10:38:09.305Z,27.30
2017-04-10T10:39:08.949Z,28.40
2017-04-10T10:40:08.546Z,27.90
2017-04-10T10:41:08.108Z,27.90
2017-04-10T10:42:07.864Z,27.80
2017-04-10T10:43:07.424Z,29.10
2017-04-10T10:44:07.021Z,28.60
2017-04-10T10:45:06.601Z,27.80
2017-04-10T10:46:06.160Z,27.80
2017-04-10T10:47:05.727Z,27.40
2017-04-10T10:48:05.429Z,26.80
2017-04-10T10:49:04.968Z,26.40
2017-04-10T10:50:04.625Z,28.20
2017-04-10T10:51:04.234Z,27.50
2017-04-10T10:52:03.886Z,26.60
2017-04-10T10:53:03.539Z,29.30
2017-04-10T10:54:03.105Z,27.60
2017-04-10T10:55:03.368Z,27.60
2017-04-10T10:56:02.934Z,26.90
2017-04-10T10:57:02.479Z,27.20
2017-04-10T10:58:02.229Z,26.90
2017-04-10T10:59:01.840Z,26.50
2017-04-10T11:00:01.401Z,26.20
2017-04-10T11:01:01.007Z,26.00
2017-04-10T11:02:00.534Z,25.40
2017-04-10T11:03:00.091Z,25.50
2017-04-10T11:03:59.664Z,25.40
2017-04-10T11:04:59.243Z,25.80
2017-04-10T11:05:58.872Z,25.60
2017-04-10T11:06:58.430Z,27.10
2017-04-10T11:07:58.005Z,27.10
2017-04-10T11:08:57.639Z,26.30
2017-04-10T11:09:57.225Z,26.20
2017-04-10T11:10:57.167Z,26.30
2017-04-10T11:11:56.758Z,26.00
2017-04-10T11:12:56.427Z,26.00
2017-04-10T11:13:55.962Z,25.70
2017-04-10T11:14:55.667Z,25.50
2017-04-10T11:15:55.210Z,26.30
2017-04-10T11:16:54.955Z,25.50
2017-04-10T11:17:54.563Z,25.80
2017-04-10T11:18:54.249Z,26.50
2017-04-10T11:19:53.823Z,26.00
2017-04-10T11:20:53.395Z,27.40
2017-04-10T11:21:53.060Z,26.40
2017-04-10T11:22:52.579Z,26.90
2017-04-10T11:23:52.329Z,25.80
2017-04-10T11:24:51.901Z,25.10
2017-04-10T11:25:51.460Z,25.00
2017-04-10T11:26:51.070Z,24.90
2017-04-10T11:27:51.013Z,25.40
2017-04-10T11:28:50.560Z,24.30
2017-04-10T11:29:50.096Z,25.70
2017-04-10T11:30:49.644Z,25.40
2017-04-10T11:31:49.196Z,25.50
2017-04-10T11:32:48.768Z,25.40
2017-04-10T11:33:48.301Z,26.90
2017-04-10T11:34:47.931Z,25.10
2017-04-10T11:35:47.502Z,22.50
2017-04-10T11:36:47.070Z,22.50
2017-04-10T11:37:46.614Z,22.40
2017-04-10T11:38:46.208Z,22.60
2017-04-10T11:39:45.734Z,23.10
2017-04-10T11:40:45.281Z,22.80
2017-04-10T11:41:44.931Z,23.20
2017-04-10T11:42:44.577Z,23.80
2017-04-10T11:43:44.190Z,23.30
2017-04-10T11:44:43.774Z,23.40
2017-04-10T11:45:43.349Z,24.40
2017-04-10T11:46:43.624Z,24.70
2017-04-10T11:47:43.180Z,25.10
2017-04-10T11:48:42.750Z,24.40
2017-04-10T11:49:42.310Z,25.50
2017-04-10T11:50:41.906Z,25.80
2017-04-10T11:51:42.572Z,23.60
2017-04-10T11:52:42.174Z,25.10
2017-04-10T11:53:41.732Z,23.30
2017-04-10T11:54:41.361Z,22.70
2017-04-10T11:55:41.653Z,22.30
2017-04-10T11:56:41.219Z,22.80
2017-04-10T11:57:40.758Z,22.70
2017-04-10T11:59:40.332Z,22.40
2017-04-10T12:00:39.867Z,23.20
2017-04-10T12:01:40.199Z,22.90
2017-04-10T12:02:39.863Z,23.30
2017-04-10T12:03:40.150Z,23.30
2017-04-10T12:04:39.701Z,23.60
2017-04-10T12:05:40.024Z,23.80
2017-04-10T12:06:40.342Z,24.40
2017-04-10T12:07:39.927Z,23.70
2017-04-10T12:08:40.316Z,24.90
2017-04-10T12:09:39.871Z,24.40
2017-04-10T12:10:39.471Z,24.60
2017-04-10T12:11:39.131Z,24.40
2017-04-10T12:12:39.429Z,24.60
2017-04-10T12:13:38.979Z,21.80
2017-04-10T12:14:38.661Z,21.30
2017-04-10T12:15:38.198Z,20.90
2017-04-10T12:16:37.759Z,20.60
2017-04-10T12:17:38.802Z,21.00
2017-04-10T12:18:38.383Z,21.40
2017-04-10T12:19:38.008Z,21.10
2017-04-10T12:20:37.621Z,20.20
2017-04-10T12:21:37.201Z,19.40
2017-04-10T12:22:36.744Z,19.80
2017-04-10T12:23:38.223Z,20.40
2017-04-10T12:24:39.287Z,21.30
2017-04-10T12:25:40.566Z,21.90
2017-04-10T12:26:41.933Z,21.90
2017-04-10T12:27:43.154Z,22.10
2017-04-10T12:28:43.677Z,20.80
2017-04-10T12:29:44.892Z,20.90
2017-04-10T12:30:46.380Z,20.30
2017-04-10T12:31:47.624Z,20.70
2017-04-10T12:32:48.742Z,20.90
2017-04-10T12:33:49.490Z,21.30
2017-04-10T12:34:50.616Z,21.00
2017-04-10T12:35:51.970Z,21.10
2017-04-10T12:36:52.914Z,21.20
2017-04-10T12:37:54.475Z,21.60
2017-04-10T12:38:55.227Z,21.70
2017-04-10T12:39:56.195Z,21.20
2017-04-10T12:40:57.039Z,21.30
2017-04-10T12:41:58.153Z,21.50
2017-04-10T12:42:59.398Z,22.00
2017-04-10T12:44:00.495Z,22.40
2017-04-10T12:45:01.637Z,22.60
2017-04-10T12:46:02.553Z,22.00
2017-04-10T12:47:03.493Z,21.90
2017-04-10T12:48:04.682Z,21.90
2017-04-10T12:49:05.783Z,21.30
2017-04-10T12:50:06.862Z,20.60
2017-04-10T12:51:08.265Z,20.90
2017-04-10T12:52:09.420Z,20.10
2017-04-10T12:53:10.368Z,19.90
2017-04-10T12:54:11.674Z,19.90
2017-04-10T12:55:12.512Z,19.00
2017-04-10T12:56:13.723Z,18.90
2017-04-10T12:57:14.610Z,19.10
2017-04-10T12:58:15.219Z,19.30
2017-04-10T12:59:16.075Z,19.50
2017-04-10T13:00:17.116Z,19.70
2017-04-10T13:01:17.998Z,19.80
2017-04-10T13:02:18.837Z,19.70
2017-04-10T13:03:18.995Z,19.50
2017-04-10T13:04:18.562Z,20.00
2017-04-10T13:05:18.869Z,19.80
2017-04-10T13:06:18.449Z,20.10
2017-04-10T13:07:19.712Z,17.90
2017-04-10T13:08:19.329Z,19.40